createdAt,value
2019-03-21T00:01:13.459Z,7.02
2019-03-21T00:03:45.192Z,7.06
2019-03-21T00:06:16.951Z,6.98
2019-03-21T00:08:51.826Z,7.01
2019-03-21T00:12:04.662Z,6.98
2019-03-21T00:14:59.284Z,6.86
2019-03-21T00:17:33.825Z,6.88
2019-03-21T00:20:07.196Z,6.78
2019-03-21T00:22:40.372Z,6.87
2019-03-21T00:25:19.834Z,6.83
2019-03-21T00:27:51.097Z,6.86
2019-03-21T00:30:23.144Z,6.84
2019-03-21T00:32:58.460Z,6.88
2019-03-21T00:35:35.121Z,6.83
2019-03-21T00:38:06.252Z,6.78
2019-03-21T00:40:39.427Z,6.72
2019-03-21T00:43:11.769Z,6.75
2019-03-21T00:45:42.984Z,6.65
2019-03-21T00:48:21.460Z,6.69
2019-03-21T00:50:52.558Z,6.72
2019-03-21T00:53:23.671Z,6.77
2019-03-21T00:55:55.052Z,6.71
2019-03-21T00:58:26.244Z,6.71
2019-03-21T01:00:57.796Z,6.76
2019-03-21T01:03:28.908Z,6.75
2019-03-21T01:06:00.074Z,6.67
2019-03-21T01:08:42.611Z,6.59
2019-03-21T01:11:13.901Z,6.60
2019-03-21T01:13:51.066Z,6.64
2019-03-21T01:16:22.288Z,6.66
2019-03-21T01:18:53.415Z,6.64
2019-03-21T01:21:24.565Z,6.60
2019-03-21T01:23:55.802Z,6.52
2019-03-21T01:26:33.956Z,6.60
2019-03-21T01:29:05.149Z,6.65
2019-03-21T01:31:36.295Z,6.40
2019-03-21T01:34:07.427Z,6.46
2019-03-21T01:36:41.931Z,6.45
2019-03-21T01:39:38.328Z,6.42
2019-03-21T01:42:16.407Z,6.35
2019-03-21T01:44:47.426Z,6.35
2019-03-21T01:47:18.592Z,6.38
2019-03-21T01:50:03.178Z,6.37
2019-03-21T01:52:34.352Z,6.29
2019-03-21T01:55:06.346Z,6.23
2019-03-21T01:57:37.479Z,6.22
2019-03-21T02:00:11.982Z,6.17
2019-03-21T02:02:43.286Z,6.14
2019-03-21T02:05:14.437Z,6.18
2019-03-21T02:07:45.733Z,6.08
2019-03-21T02:10:18.901Z,6.09
2019-03-21T02:12:50.111Z,6.11
2019-03-21T02:15:21.278Z,6.03
2019-03-21T02:17:52.501Z,6.04
2019-03-21T02:20:23.610Z,6.02
2019-03-21T02:22:54.742Z,6.04
2019-03-21T02:25:27.733Z,5.95
2019-03-21T02:27:58.962Z,5.96
2019-03-21T02:30:34.748Z,6.07
2019-03-21T02:33:12.377Z,5.94
2019-03-21T02:35:43.499Z,5.98
2019-03-21T02:38:14.543Z,5.94
2019-03-21T02:40:47.732Z,5.99
2019-03-21T02:43:18.950Z,5.91
2019-03-21T02:45:55.155Z,5.99
2019-03-21T02:48:26.419Z,6.00
2019-03-21T02:50:58.605Z,6.01
2019-03-21T02:53:30.794Z,5.98
2019-03-21T02:56:02.082Z,5.92
2019-03-21T02:58:33.175Z,5.80
2019-03-21T03:01:04.349Z,5.75
2019-03-21T03:03:35.394Z,5.79
2019-03-21T03:06:06.725Z,5.78
2019-03-21T03:08:37.918Z,5.82
2019-03-21T03:11:10.933Z,5.79
2019-03-21T03:13:43.249Z,5.75
2019-03-21T03:16:14.489Z,5.73
2019-03-21T03:18:46.641Z,5.70
2019-03-21T03:21:18.707Z,5.70
2019-03-21T03:23:49.928Z,5.75
2019-03-21T03:26:25.566Z,5.76
2019-03-21T03:28:56.607Z,5.80
2019-03-21T03:31:30.954Z,5.79
2019-03-21T03:34:02.276Z,5.81
2019-03-21T03:36:33.650Z,5.68
2019-03-21T03:39:07.871Z,5.80
2019-03-21T03:41:46.726Z,5.80
2019-03-21T03:44:17.982Z,5.79
2019-03-21T03:46:53.255Z,5.80
2019-03-21T03:49:24.365Z,5.74
2019-03-21T03:51:55.568Z,5.81
2019-03-21T03:54:32.790Z,5.79
2019-03-21T03:57:04.107Z,5.73
2019-03-21T03:59:35.306Z,5.81
2019-03-21T04:02:06.469Z,5.80
2019-03-21T04:04:37.591Z,5.77
2019-03-21T04:07:08.719Z,5.75
2019-03-21T04:09:39.838Z,5.74
2019-03-21T04:12:11.040Z,5.66
2019-03-21T04:14:46.091Z,5.72
2019-03-21T04:17:23.456Z,5.71
2019-03-21T04:19:54.594Z,5.82
2019-03-21T04:22:25.812Z,5.74
2019-03-21T04:24:56.918Z,5.83
2019-03-21T04:27:42.566Z,5.85
2019-03-21T04:30:14.551Z,5.78
2019-03-21T04:33:17.975Z,5.86
2019-03-21T04:36:08.427Z,5.84
2019-03-21T04:38:39.678Z,5.88
2019-03-21T04:41:10.793Z,5.93
2019-03-21T04:43:52.476Z,6.03
2019-03-21T04:46:23.559Z,6.04
2019-03-21T04:49:06.820Z,5.99
2019-03-21T04:51:38.969Z,5.86
2019-03-21T04:54:11.160Z,5.90
2019-03-21T04:56:42.412Z,5.91
2019-03-21T04:59:19.739Z,5.81
2019-03-21T05:01:50.888Z,5.77
2019-03-21T05:04:22.084Z,5.77
2019-03-21T05:07:08.751Z,5.61
2019-03-21T05:09:39.904Z,5.68
2019-03-21T05:12:13.088Z,5.67
2019-03-21T05:14:44.301Z,5.59
2019-03-21T05:17:20.866Z,5.61
2019-03-21T05:19:52.035Z,5.64
2019-03-21T05:22:23.324Z,5.75
2019-03-21T05:25:03.290Z,5.75
2019-03-21T05:27:50.701Z,5.70
2019-03-21T05:30:37.715Z,5.60
2019-03-21T05:33:17.841Z,5.61
2019-03-21T05:36:06.557Z,5.58
2019-03-21T05:38:37.866Z,5.62
2019-03-21T05:41:21.050Z,5.68
2019-03-21T05:43:55.884Z,5.68
2019-03-21T05:46:27.412Z,5.62
2019-03-21T05:49:13.466Z,5.69
2019-03-21T05:51:48.161Z,5.70
2019-03-21T05:54:19.439Z,5.73
2019-03-21T05:56:50.639Z,5.55
2019-03-21T05:59:24.903Z,5.61
2019-03-21T06:01:58.058Z,5.74
2019-03-21T06:04:33.189Z,5.66
2019-03-21T06:07:30.431Z,5.76
2019-03-21T06:10:02.676Z,5.78
2019-03-21T06:13:03.996Z,5.81
2019-03-21T06:15:39.886Z,5.84
2019-03-21T06:18:47.104Z,5.95
2019-03-21T06:21:54.663Z,5.97
2019-03-21T06:24:54.172Z,6.05
2019-03-21T06:27:40.745Z,6.34
2019-03-21T06:30:12.297Z,6.48
2019-03-21T06:32:43.523Z,6.67
2019-03-21T06:35:22.087Z,6.89
2019-03-21T06:37:55.251Z,6.92
2019-03-21T06:40:39.392Z,7.23
2019-03-21T06:43:21.599Z,7.56
2019-03-21T06:45:52.754Z,7.81
2019-03-21T06:48:24.888Z,8.09
2019-03-21T06:50:56.319Z,8.14
2019-03-21T06:53:27.603Z,8.10
2019-03-21T06:56:15.755Z,8.17
2019-03-21T06:58:49.143Z,8.40
2019-03-21T07:01:26.445Z,8.25
2019-03-21T07:04:06.596Z,8.33
2019-03-21T07:07:08.344Z,8.37
2019-03-21T07:09:40.196Z,8.65
2019-03-21T07:12:11.379Z,8.88
2019-03-21T07:15:05.870Z,9.11
2019-03-21T07:17:37.011Z,9.07
2019-03-21T07:20:18.349Z,8.91
2019-03-21T07:22:49.880Z,9.00
2019-03-21T07:25:20.991Z,8.91
2019-03-21T07:27:52.028Z,8.81
2019-03-21T07:30:23.286Z,9.00
2019-03-21T07:32:54.414Z,9.25
2019-03-21T07:35:25.556Z,9.24
2019-03-21T07:37:56.676Z,9.48
2019-03-21T07:40:27.971Z,9.51
2019-03-21T07:42:59.003Z,9.58
2019-03-21T07:45:30.132Z,9.76
2019-03-21T07:48:09.331Z,9.83
2019-03-21T07:50:40.576Z,9.68
2019-03-21T07:53:11.778Z,9.88
2019-03-21T07:55:42.932Z,10.23
2019-03-21T07:58:14.057Z,10.41
2019-03-21T08:00:45.215Z,10.44
2019-03-21T08:03:16.358Z,10.57
2019-03-21T08:05:54.901Z,10.54
2019-03-21T08:08:26.073Z,10.74
2019-03-21T08:10:57.229Z,10.38
2019-03-21T08:13:34.194Z,10.74
2019-03-21T08:16:08.437Z,10.73
2019-03-21T08:18:39.543Z,10.65
2019-03-21T08:21:10.732Z,10.90
2019-03-21T08:24:00.342Z,11.23
2019-03-21T08:26:31.574Z,11.43
2019-03-21T08:29:04.800Z,11.67
2019-03-21T08:31:35.920Z,11.78
2019-03-21T08:34:07.062Z,12.02
2019-03-21T08:36:38.257Z,12.16
2019-03-21T08:39:31.232Z,11.99
2019-03-21T08:42:02.480Z,12.44
2019-03-21T08:44:33.594Z,12.20
2019-03-21T08:47:04.799Z,12.50
2019-03-21T08:49:36.019Z,12.19
2019-03-21T08:52:28.134Z,12.21
2019-03-21T08:54:59.295Z,12.54
2019-03-21T08:57:45.074Z,12.60
2019-03-21T09:00:17.300Z,12.60
2019-03-21T09:02:48.443Z,12.79
2019-03-21T09:05:33.840Z,12.89
2019-03-21T09:08:10.053Z,13.26
2019-03-21T09:10:41.273Z,12.96
2019-03-21T09:13:13.603Z,13.15
2019-03-21T09:15:44.759Z,13.26
2019-03-21T09:18:15.963Z,13.28
2019-03-21T09:20:47.230Z,13.70
2019-03-21T09:23:18.508Z,13.82
2019-03-21T09:25:55.485Z,13.78
2019-03-21T09:28:26.730Z,13.76
2019-03-21T09:30:57.884Z,14.03
2019-03-21T09:33:29.058Z,14.31
2019-03-21T09:36:00.164Z,14.41
2019-03-21T09:38:41.300Z,14.25
2019-03-21T09:41:12.565Z,14.18
2019-03-21T09:43:49.939Z,14.27
2019-03-21T09:46:26.843Z,14.32
2019-03-21T09:49:17.365Z,14.12
2019-03-21T09:51:55.314Z,14.23
2019-03-21T09:54:26.600Z,14.32
2019-03-21T09:56:57.808Z,14.13
2019-03-21T09:59:29.232Z,14.04
2019-03-21T10:02:01.489Z,14.42
2019-03-21T10:04:43.231Z,14.33
2019-03-21T10:07:44.141Z,14.37
2019-03-21T10:10:29.493Z,14.59
2019-03-21T10:13:06.117Z,14.20
2019-03-21T10:15:37.293Z,14.40
2019-03-21T10:18:08.485Z,14.48
2019-03-21T10:20:57.720Z,14.48
2019-03-21T10:23:30.973Z,14.64
2019-03-21T10:26:02.302Z,14.48
2019-03-21T10:28:33.618Z,14.66
2019-03-21T10:31:08.945Z,14.60
2019-03-21T10:33:40.126Z,14.81
2019-03-21T10:36:11.329Z,14.90
2019-03-21T10:38:42.555Z,15.15
2019-03-21T10:41:13.657Z,15.24
2019-03-21T10:44:08.638Z,15.41
2019-03-21T10:46:39.863Z,15.53
2019-03-21T10:49:11.156Z,15.34
2019-03-21T10:51:56.613Z,15.60
2019-03-21T10:54:33.450Z,15.71
2019-03-21T10:57:05.692Z,15.63
2019-03-21T10:59:37.055Z,15.83
2019-03-21T11:02:08.230Z,15.53
2019-03-21T11:04:39.492Z,15.67
2019-03-21T11:07:13.680Z,15.73
2019-03-21T11:09:44.868Z,15.72
2019-03-21T11:12:18.002Z,15.80
2019-03-21T11:14:49.224Z,15.80
2019-03-21T11:17:22.362Z,15.93
2019-03-21T11:19:54.529Z,16.05
2019-03-21T11:22:25.658Z,15.86
2019-03-21T11:24:56.969Z,15.77
2019-03-21T11:27:33.878Z,15.97
2019-03-21T11:30:15.702Z,16.09
2019-03-21T11:32:40.621Z,16.06
2019-03-21T11:35:14.020Z,16.24
2019-03-21T11:37:45.159Z,16.13
2019-03-21T11:40:18.212Z,16.11
2019-03-21T11:42:49.446Z,16.13
2019-03-21T11:45:24.105Z,16.24
2019-03-21T11:48:19.243Z,16.26
2019-03-21T11:50:59.115Z,16.23
2019-03-21T11:53:30.299Z,16.50
2019-03-21T11:56:01.610Z,16.57
2019-03-21T11:58:32.747Z,16.62
2019-03-21T12:01:03.954Z,16.48
2019-03-21T12:04:02.270Z,16.45
2019-03-21T12:06:33.762Z,16.35
2019-03-21T12:09:07.179Z,16.28
2019-03-21T12:11:45.656Z,16.42
2019-03-21T12:14:24.706Z,16.31
2019-03-21T12:16:56.143Z,16.47
2019-03-21T12:19:27.489Z,16.59
2019-03-21T12:22:02.277Z,16.66
2019-03-21T12:24:42.534Z,16.81
2019-03-21T12:27:37.621Z,16.89
2019-03-21T12:30:10.942Z,16.74
2019-03-21T12:32:42.119Z,16.76
2019-03-21T12:35:13.387Z,16.79
2019-03-21T12:37:45.588Z,17.01
2019-03-21T12:40:24.262Z,16.74
2019-03-21T12:43:05.065Z,16.94
2019-03-21T12:45:49.943Z,16.81
2019-03-21T12:48:23.022Z,16.84
2019-03-21T12:51:04.622Z,17.07
2019-03-21T12:54:05.776Z,17.03
2019-03-21T12:56:48.145Z,17.21
2019-03-21T12:59:19.316Z,17.05
2019-03-21T13:01:50.561Z,17.24
2019-03-21T13:04:36.544Z,17.29
2019-03-21T13:07:17.312Z,17.31
2019-03-21T13:09:48.617Z,17.12
2019-03-21T13:12:19.813Z,16.93
2019-03-21T13:14:51.801Z,17.03
2019-03-21T13:17:24.357Z,16.93
2019-03-21T13:19:55.689Z,16.63
2019-03-21T13:22:31.400Z,16.22
2019-03-21T13:25:08.127Z,16.55
2019-03-21T13:27:45.032Z,16.55
2019-03-21T13:30:16.631Z,16.62
2019-03-21T13:32:49.857Z,16.75
2019-03-21T13:35:32.117Z,16.84
2019-03-21T13:37:54.518Z,16.65
2019-03-21T13:40:26.080Z,16.70
2019-03-21T13:43:01.701Z,16.77
2019-03-21T13:45:33.615Z,16.56
2019-03-21T13:48:06.452Z,16.82
2019-03-21T13:51:08.819Z,16.77
2019-03-21T13:53:58.645Z,16.82
2019-03-21T13:56:37.930Z,16.77
2019-03-21T13:59:03.053Z,16.71
2019-03-21T14:01:35.353Z,16.53
2019-03-21T14:04:12.742Z,16.54
2019-03-21T14:06:57.379Z,16.72
2019-03-21T14:09:29.058Z,16.51
2019-03-21T14:12:00.537Z,16.35
2019-03-21T14:14:31.806Z,16.19
2019-03-21T14:17:05.077Z,16.31
2019-03-21T14:19:36.463Z,16.34
2019-03-21T14:22:23.866Z,16.21
2019-03-21T14:24:58.725Z,16.42
2019-03-21T14:27:30.295Z,16.54
2019-03-21T14:30:03.668Z,16.46
2019-03-21T14:32:36.024Z,16.51
2019-03-21T14:35:08.102Z,16.60
2019-03-21T14:37:39.415Z,16.50
2019-03-21T14:40:14.735Z,16.40
2019-03-21T14:42:46.498Z,16.45
2019-03-21T14:45:45.593Z,16.36
2019-03-21T14:51:32.291Z,16.45
2019-03-21T14:54:14.844Z,16.51
2019-03-21T14:56:51.920Z,16.53
2019-03-21T14:59:23.511Z,16.39
2019-03-21T15:02:29.501Z,16.35
2019-03-21T15:05:07.077Z,16.27
2019-03-21T15:07:44.046Z,16.27
2019-03-21T15:10:17.651Z,16.30
2019-03-21T15:12:49.352Z,16.40
2019-03-21T15:15:23.807Z,16.44
2019-03-21T15:17:58.530Z,16.40
2019-03-21T15:20:28.987Z,16.39
2019-03-21T15:23:01.146Z,16.31
2019-03-21T15:25:42.415Z,16.36
2019-03-21T15:28:13.472Z,16.41
2019-03-21T15:30:51.539Z,16.33
2019-03-21T15:33:26.637Z,16.33
2019-03-21T15:36:04.790Z,16.32
2019-03-21T15:38:36.042Z,16.26
2019-03-21T15:41:07.205Z,16.27
2019-03-21T15:43:46.329Z,16.38
2019-03-21T15:46:17.510Z,16.33
2019-03-21T15:49:12.749Z,16.20
2019-03-21T15:51:43.865Z,16.21
2019-03-21T15:55:03.095Z,16.26
2019-03-21T15:57:34.311Z,16.25
2019-03-21T16:00:07.688Z,16.22
2019-03-21T16:02:52.087Z,16.37
2019-03-21T16:05:23.400Z,16.28
2019-03-21T16:08:00.717Z,16.25
2019-03-21T16:10:33.880Z,16.16
2019-03-21T16:13:05.297Z,16.11
2019-03-21T16:15:42.087Z,16.11
2019-03-21T16:18:33.933Z,16.09
2019-03-21T16:21:06.175Z,16.16
2019-03-21T16:23:37.571Z,16.13
2019-03-21T16:26:08.853Z,16.09
2019-03-21T16:28:53.299Z,16.10
2019-03-21T16:31:25.685Z,16.10
2019-03-21T16:34:04.978Z,16.11
2019-03-21T16:36:45.456Z,16.08
2019-03-21T16:39:16.619Z,16.12
2019-03-21T16:41:47.806Z,16.12
2019-03-21T16:44:18.984Z,16.11
2019-03-21T16:47:13.917Z,16.04
2019-03-21T16:49:55.493Z,16.10
2019-03-21T16:52:54.457Z,15.98
2019-03-21T16:55:27.734Z,15.93
2019-03-21T16:58:02.029Z,15.93
2019-03-21T17:00:46.588Z,15.86
2019-03-21T17:03:22.874Z,15.86
2019-03-21T17:06:15.777Z,15.83
2019-03-21T17:08:47.015Z,15.82
2019-03-21T17:11:25.558Z,15.78
2019-03-21T17:13:56.711Z,15.83
2019-03-21T17:16:28.927Z,15.72
2019-03-21T17:19:07.771Z,15.69
2019-03-21T17:21:39.026Z,15.63
2019-03-21T17:24:28.450Z,15.61
2019-03-21T17:26:49.293Z,15.61
2019-03-21T17:29:20.476Z,15.56
2019-03-21T17:31:57.525Z,15.51
2019-03-21T17:34:29.723Z,15.51
2019-03-21T17:37:00.868Z,15.45
2019-03-21T17:39:35.275Z,15.36
2019-03-21T17:42:07.535Z,15.25
2019-03-21T17:44:41.318Z,15.22
2019-03-21T17:47:12.569Z,15.14
2019-03-21T17:49:43.840Z,15.08
2019-03-21T17:52:25.441Z,15.04
2019-03-21T17:54:59.942Z,14.97
2019-03-21T17:57:58.896Z,14.92
2019-03-21T18:00:31.764Z,14.89
2019-03-21T18:03:05.339Z,14.81
2019-03-21T18:05:57.472Z,14.71
2019-03-21T18:08:31.800Z,14.70
2019-03-21T18:11:05.036Z,14.63
2019-03-21T18:13:40.951Z,14.56
2019-03-21T18:16:12.169Z,14.48
2019-03-21T18:18:43.436Z,14.42
2019-03-21T18:21:15.569Z,14.32
2019-03-21T18:23:46.796Z,14.30
2019-03-21T18:26:25.319Z,14.25
2019-03-21T18:29:07.608Z,14.16
2019-03-21T18:31:38.908Z,14.13
2019-03-21T18:34:23.377Z,14.07
2019-03-21T18:36:58.305Z,14.01
2019-03-21T18:39:50.674Z,13.85
2019-03-21T18:42:23.830Z,13.84
2019-03-21T18:44:56.509Z,13.78
2019-03-21T18:47:35.718Z,13.70
2019-03-21T18:50:09.330Z,13.63
2019-03-21T18:53:00.508Z,13.60
2019-03-21T18:55:35.050Z,13.45
2019-03-21T18:58:06.283Z,13.39
2019-03-21T19:00:37.625Z,13.35
2019-03-21T19:03:09.107Z,13.29
2019-03-21T19:05:40.324Z,13.29
2019-03-21T19:08:27.344Z,13.21
2019-03-21T19:10:58.957Z,13.18
2019-03-21T19:13:33.160Z,13.12
2019-03-21T19:16:06.608Z,13.06
2019-03-21T19:18:47.030Z,12.99
2019-03-21T19:21:19.181Z,12.93
2019-03-21T19:23:50.388Z,12.84
2019-03-21T19:26:21.683Z,12.80
2019-03-21T19:29:06.452Z,12.75
2019-03-21T19:31:37.690Z,12.71
2019-03-21T19:34:08.852Z,12.62
2019-03-21T19:36:50.205Z,12.58
2019-03-21T19:39:21.583Z,12.48
2019-03-21T19:41:53.802Z,12.47
2019-03-21T19:44:25.019Z,12.40
2019-03-21T19:46:56.245Z,12.41
2019-03-21T19:49:34.987Z,12.39
2019-03-21T19:52:21.304Z,12.38
2019-03-21T19:54:52.532Z,12.30
2019-03-21T19:57:23.789Z,12.27
2019-03-21T20:00:07.842Z,12.26
2019-03-21T20:02:45.076Z,12.25
2019-03-21T20:05:16.417Z,12.20
2019-03-21T20:07:50.541Z,12.16
2019-03-21T20:10:32.887Z,12.11
2019-03-21T20:13:04.377Z,12.06
2019-03-21T20:15:36.585Z,12.09
2019-03-21T20:18:07.929Z,12.04
2019-03-21T20:20:47.131Z,12.00
2019-03-21T20:23:18.414Z,11.93
2019-03-21T20:25:49.649Z,11.91
2019-03-21T20:28:20.930Z,11.88
2019-03-21T20:30:52.144Z,11.91
2019-03-21T20:33:23.442Z,11.84
2019-03-21T20:35:54.755Z,11.77
2019-03-21T20:38:26.020Z,11.75
2019-03-21T20:40:57.357Z,11.68
2019-03-21T20:43:28.779Z,11.68
2019-03-21T20:46:01.014Z,11.67
2019-03-21T20:48:30.366Z,11.61
2019-03-21T20:51:01.611Z,11.56
2019-03-21T20:53:34.874Z,11.49
2019-03-21T20:56:11.670Z,11.47
2019-03-21T20:58:46.124Z,11.41
2019-03-21T21:01:17.246Z,11.36
2019-03-21T21:03:54.982Z,11.35
2019-03-21T21:06:29.590Z,11.37
2019-03-21T21:09:03.321Z,11.34
2019-03-21T21:11:56.433Z,11.33
2019-03-21T21:14:54.587Z,11.28
2019-03-21T21:17:26.855Z,11.22
2019-03-21T21:19:59.140Z,11.12
2019-03-21T21:22:34.287Z,11.09
2019-03-21T21:25:07.183Z,11.07
2019-03-21T21:27:49.563Z,11.02
2019-03-21T21:30:17.037Z,11.02
2019-03-21T21:32:49.428Z,11.02
2019-03-21T21:35:26.806Z,11.00
2019-03-21T21:38:03.535Z,10.92
2019-03-21T21:40:34.755Z,10.92
2019-03-21T21:43:06.162Z,10.92
2019-03-21T21:45:51.660Z,10.80
2019-03-21T21:48:22.714Z,10.79
2019-03-21T21:50:53.932Z,10.79
2019-03-21T21:53:26.137Z,10.73
2019-03-21T21:55:57.355Z,10.61
2019-03-21T21:58:29.220Z,10.66
2019-03-21T22:01:02.560Z,10.65
2019-03-21T22:03:33.762Z,10.64
2019-03-21T22:06:06.291Z,10.62
2019-03-21T22:08:52.749Z,10.62
2019-03-21T22:11:29.015Z,10.62
2019-03-21T22:14:14.157Z,10.60
2019-03-21T22:16:45.788Z,10.54
2019-03-21T22:19:17.386Z,10.51
2019-03-21T22:21:55.315Z,10.44
2019-03-21T22:24:26.385Z,10.40
2019-03-21T22:26:57.744Z,10.39
2019-03-21T22:29:30.057Z,10.36
2019-03-21T22:32:03.214Z,10.35
2019-03-21T22:34:34.630Z,10.33
2019-03-21T22:37:06.240Z,10.23
2019-03-21T22:39:38.062Z,10.27
2019-03-21T22:42:09.866Z,10.22
2019-03-21T22:44:44.444Z,10.16
2019-03-21T22:47:21.856Z,10.10
2019-03-21T22:49:53.712Z,10.09
2019-03-21T22:52:45.589Z,10.08
2019-03-21T22:55:21.307Z,10.02
2019-03-21T22:57:55.844Z,10.04
2019-03-21T23:00:43.378Z,9.94
2019-03-21T23:03:16.352Z,9.96
2019-03-21T23:05:48.559Z,9.95
2019-03-21T23:08:19.796Z,9.91
2019-03-21T23:10:57.937Z,9.91
2019-03-21T23:13:34.037Z,9.92
2019-03-21T23:16:05.359Z,9.85
2019-03-21T23:18:39.585Z,9.77
2019-03-21T23:21:28.892Z,9.76
2019-03-21T23:24:04.799Z,9.74
2019-03-21T23:26:37.064Z,9.67
2019-03-21T23:29:15.308Z,9.66
2019-03-21T23:32:00.138Z,9.63
2019-03-21T23:34:31.388Z,9.65
2019-03-21T23:37:12.682Z,9.59
2019-03-21T23:39:44.848Z,9.50
2019-03-21T23:42:42.932Z,9.49
2019-03-21T23:45:14.421Z,9.49
2019-03-21T23:47:45.694Z,9.37
2019-03-21T23:50:17.093Z,9.31
2019-03-21T23:52:48.597Z,9.36
2019-03-21T23:55:20.072Z,9.38
2019-03-21T23:57:52.307Z,9.31
